sensor_id;sensor_type;location;lat;lon;timestamp;temperature;humidity
54898;DHT22;40800;52.704;6.398;2023-08-08T00:00:49;14.90;99.90
54898;DHT22;40800;52.704;6.398;2023-08-08T00:03:15;14.90;99.90
54898;DHT22;40800;52.704;6.398;2023-08-08T00:05:41;14.70;99.90
54898;DHT22;40800;52.704;6.398;2023-08-08T00:08:07;14.90;99.90
54898;DHT22;40800;52.704;6.398;2023-08-08T00:10:32;15.20;99.90
54898;DHT22;40800;52.704;6.398;2023-08-08T00:12:58;15.00;99.90
54898;DHT22;40800;52.704;6.398;2023-08-08T00:15:24;14.90;99.90
54898;DHT22;40800;52.704;6.398;2023-08-08T00:17:49;15.20;99.90
54898;DHT22;40800;52.704;6.398;2023-08-08T00:20:15;15.20;99.90
54898;DHT22;40800;52.704;6.398;2023-08-08T00:22:41;15.10;99.90
54898;DHT22;40800;52.704;6.398;2023-08-08T00:25:07;15.30;99.90
54898;DHT22;40800;52.704;6.398;2023-08-08T00:27:33;15.30;99.90
54898;DHT22;40800;52.704;6.398;2023-08-08T00:29:59;15.30;99.90
54898;DHT22;40800;52.704;6.398;2023-08-08T00:32:25;15.10;99.90
54898;DHT22;40800;52.704;6.398;2023-08-08T00:34:51;15.40;99.90
54898;DHT22;40800;52.704;6.398;2023-08-08T00:37:16;15.30;99.90
54898;DHT22;40800;52.704;6.398;2023-08-08T00:39:42;15.40;99.90
54898;DHT22;40800;52.704;6.398;2023-08-08T00:42:14;15.50;99.90
54898;DHT22;40800;52.704;6.398;2023-08-08T00:44:40;15.20;99.90
54898;DHT22;40800;52.704;6.398;2023-08-08T00:47:08;15.20;99.90
54898;DHT22;40800;52.704;6.398;2023-08-08T00:49:34;15.20;99.90
54898;DHT22;40800;52.704;6.398;2023-08-08T00:52:00;15.50;99.90
54898;DHT22;40800;52.704;6.398;2023-08-08T00:54:26;15.50;99.90
54898;DHT22;40800;52.704;6.398;2023-08-08T00:56:52;15.50;99.90
54898;DHT22;40800;52.704;6.398;2023-08-08T00:59:19;15.20;99.90
54898;DHT22;40800;52.704;6.398;2023-08-08T01:01:45;15.50;99.90
54898;DHT22;40800;52.704;6.398;2023-08-08T01:04:11;15.20;99.90
54898;DHT22;40800;52.704;6.398;2023-08-08T01:10:22;15.50;99.90
54898;DHT22;40800;52.704;6.398;2023-08-08T01:12:15;15.50;99.90
54898;DHT22;40800;52.704;6.398;2023-08-08T01:14:43;15.60;99.90
54898;DHT22;40800;52.704;6.398;2023-08-08T01:17:10;15.20;99.90
54898;DHT22;40800;52.704;6.398;2023-08-08T01:19:36;15.50;99.90
54898;DHT22;40800;52.704;6.398;2023-08-08T01:22:04;15.20;99.90
54898;DHT22;40800;52.704;6.398;2023-08-08T01:24:32;15.50;99.90
54898;DHT22;40800;52.704;6.398;2023-08-08T01:27:03;15.60;99.90
54898;DHT22;40800;52.704;6.398;2023-08-08T01:29:29;15.30;99.90
54898;DHT22;40800;52.704;6.398;2023-08-08T01:31:55;15.70;99.90
54898;DHT22;40800;52.704;6.398;2023-08-08T01:34:21;15.80;99.90
54898;DHT22;40800;52.704;6.398;2023-08-08T01:37:02;15.70;99.90
54898;DHT22;40800;52.704;6.398;2023-08-08T01:39:30;15.70;99.90
54898;DHT22;40800;52.704;6.398;2023-08-08T01:41:59;15.70;99.90
54898;DHT22;40800;52.704;6.398;2023-08-08T01:44:26;15.70;99.90
54898;DHT22;40800;52.704;6.398;2023-08-08T01:46:54;15.70;99.90
54898;DHT22;40800;52.704;6.398;2023-08-08T01:49:20;15.90;99.90
54898;DHT22;40800;52.704;6.398;2023-08-08T01:51:46;15.30;99.90
54898;DHT22;40800;52.704;6.398;2023-08-08T01:54:12;15.70;99.90
54898;DHT22;40800;52.704;6.398;2023-08-08T01:56:38;16.10;99.90
54898;DHT22;40800;52.704;6.398;2023-08-08T01:59:03;15.60;99.90
54898;DHT22;40800;52.704;6.398;2023-08-08T02:01:29;15.70;99.90
54898;DHT22;40800;52.704;6.398;2023-08-08T02:03:55;15.80;99.90
54898;DHT22;40800;52.704;6.398;2023-08-08T02:06:21;15.60;99.90
54898;DHT22;40800;52.704;6.398;2023-08-08T02:08:46;15.90;99.90
54898;DHT22;40800;52.704;6.398;2023-08-08T02:11:12;15.80;99.90
54898;DHT22;40800;52.704;6.398;2023-08-08T02:13:38;15.50;99.90
54898;DHT22;40800;52.704;6.398;2023-08-08T02:16:03;15.70;99.90
54898;DHT22;40800;52.704;6.398;2023-08-08T02:18:29;15.40;99.90
54898;DHT22;40800;52.704;6.398;2023-08-08T02:20:55;15.50;99.90
54898;DHT22;40800;52.704;6.398;2023-08-08T02:23:20;15.70;99.90
54898;DHT22;40800;52.704;6.398;2023-08-08T02:25:46;15.60;99.90
54898;DHT22;40800;52.704;6.398;2023-08-08T02:28:12;15.50;99.90
54898;DHT22;40800;52.704;6.398;2023-08-08T02:30:37;16.00;99.90
54898;DHT22;40800;52.704;6.398;2023-08-08T02:33:03;15.40;99.90
54898;DHT22;40800;52.704;6.398;2023-08-08T02:35:29;15.50;99.90
54898;DHT22;40800;52.704;6.398;2023-08-08T02:37:55;15.60;99.90
54898;DHT22;40800;52.704;6.398;2023-08-08T02:40:21;15.90;99.90
54898;DHT22;40800;52.704;6.398;2023-08-08T02:42:49;15.80;99.90
54898;DHT22;40800;52.704;6.398;2023-08-08T02:45:15;15.90;99.90
54898;DHT22;40800;52.704;6.398;2023-08-08T02:47:40;15.90;99.90
54898;DHT22;40800;52.704;6.398;2023-08-08T02:50:06;15.50;99.90
54898;DHT22;40800;52.704;6.398;2023-08-08T02:52:32;15.90;99.90
54898;DHT22;40800;52.704;6.398;2023-08-08T02:54:58;15.60;99.90
54898;DHT22;40800;52.704;6.398;2023-08-08T02:57:23;15.70;99.90
54898;DHT22;40800;52.704;6.398;2023-08-08T02:59:49;15.80;99.90
54898;DHT22;40800;52.704;6.398;2023-08-08T03:02:14;15.60;99.90
54898;DHT22;40800;52.704;6.398;2023-08-08T03:04:40;15.30;99.90
54898;DHT22;40800;52.704;6.398;2023-08-08T03:07:06;15.80;99.90
54898;DHT22;40800;52.704;6.398;2023-08-08T03:09:31;15.70;99.90
54898;DHT22;40800;52.704;6.398;2023-08-08T03:11:57;15.20;99.90
54898;DHT22;40800;52.704;6.398;2023-08-08T03:14:22;15.70;99.90
54898;DHT22;40800;52.704;6.398;2023-08-08T03:16:48;15.20;99.90
54898;DHT22;40800;52.704;6.398;2023-08-08T03:19:14;15.60;99.90
54898;DHT22;40800;52.704;6.398;2023-08-08T03:21:39;15.50;99.90
54898;DHT22;40800;52.704;6.398;2023-08-08T03:24:05;15.30;99.90
54898;DHT22;40800;52.704;6.398;2023-08-08T03:26:30;15.60;99.90
54898;DHT22;40800;52.704;6.398;2023-08-08T03:28:56;15.50;99.90
54898;DHT22;40800;52.704;6.398;2023-08-08T03:31:22;15.30;99.90
54898;DHT22;40800;52.704;6.398;2023-08-08T03:33:47;15.10;99.90
54898;DHT22;40800;52.704;6.398;2023-08-08T03:36:13;15.60;99.90
54898;DHT22;40800;52.704;6.398;2023-08-08T03:38:40;15.00;99.90
54898;DHT22;40800;52.704;6.398;2023-08-08T03:41:06;15.50;99.90
54898;DHT22;40800;52.704;6.398;2023-08-08T03:43:31;15.30;99.90
54898;DHT22;40800;52.704;6.398;2023-08-08T03:45:57;15.50;99.90
54898;DHT22;40800;52.704;6.398;2023-08-08T03:48:22;15.40;99.90
54898;DHT22;40800;52.704;6.398;2023-08-08T03:50:48;15.50;99.90
54898;DHT22;40800;52.704;6.398;2023-08-08T03:53:14;15.10;99.90
54898;DHT22;40800;52.704;6.398;2023-08-08T03:55:39;15.10;99.90
54898;DHT22;40800;52.704;6.398;2023-08-08T03:58:05;15.10;99.90
54898;DHT22;40800;52.704;6.398;2023-08-08T04:00:31;15.10;99.90
54898;DHT22;40800;52.704;6.398;2023-08-08T04:02:57;15.00;99.90
54898;DHT22;40800;52.704;6.398;2023-08-08T04:05:23;15.00;99.90
54898;DHT22;40800;52.704;6.398;2023-08-08T04:07:49;15.30;99.90
54898;DHT22;40800;52.704;6.398;2023-08-08T04:10:15;15.40;99.90
54898;DHT22;40800;52.704;6.398;2023-08-08T04:12:41;15.10;99.90
54898;DHT22;40800;52.704;6.398;2023-08-08T04:15:07;15.30;99.90
54898;DHT22;40800;52.704;6.398;2023-08-08T04:17:32;15.20;99.90
54898;DHT22;40800;52.704;6.398;2023-08-08T04:19:58;14.90;99.90
54898;DHT22;40800;52.704;6.398;2023-08-08T04:22:24;14.90;99.90
54898;DHT22;40800;52.704;6.398;2023-08-08T04:24:49;15.00;99.90
54898;DHT22;40800;52.704;6.398;2023-08-08T04:27:15;15.20;99.90
54898;DHT22;40800;52.704;6.398;2023-08-08T04:29:41;15.30;99.90
54898;DHT22;40800;52.704;6.398;2023-08-08T04:32:07;14.90;99.90
54898;DHT22;40800;52.704;6.398;2023-08-08T04:34:33;15.30;99.90
54898;DHT22;40800;52.704;6.398;2023-08-08T04:36:58;15.10;99.90
54898;DHT22;40800;52.704;6.398;2023-08-08T04:39:24;14.80;99.90
54898;DHT22;40800;52.704;6.398;2023-08-08T04:41:49;14.80;99.90
54898;DHT22;40800;52.704;6.398;2023-08-08T04:44:15;15.00;99.90
54898;DHT22;40800;52.704;6.398;2023-08-08T04:46:41;15.00;99.90
54898;DHT22;40800;52.704;6.398;2023-08-08T04:49:06;15.00;99.90
54898;DHT22;40800;52.704;6.398;2023-08-08T04:51:32;15.00;99.90
54898;DHT22;40800;52.704;6.398;2023-08-08T04:53:58;14.90;99.90
54898;DHT22;40800;52.704;6.398;2023-08-08T04:56:23;15.10;99.90
54898;DHT22;40800;52.704;6.398;2023-08-08T04:58:49;14.80;99.90
54898;DHT22;40800;52.704;6.398;2023-08-08T05:01:14;15.10;99.90
54898;DHT22;40800;52.704;6.398;2023-08-08T05:03:43;14.70;99.90
54898;DHT22;40800;52.704;6.398;2023-08-08T05:06:08;15.00;99.90
54898;DHT22;40800;52.704;6.398;2023-08-08T05:08:34;15.10;99.90
54898;DHT22;40800;52.704;6.398;2023-08-08T05:10:59;15.00;99.90
54898;DHT22;40800;52.704;6.398;2023-08-08T05:13:25;15.10;99.90
54898;DHT22;40800;52.704;6.398;2023-08-08T05:15:51;14.90;99.90
54898;DHT22;40800;52.704;6.398;2023-08-08T05:18:16;14.80;99.90
54898;DHT22;40800;52.704;6.398;2023-08-08T05:20:42;15.00;99.90
54898;DHT22;40800;52.704;6.398;2023-08-08T05:23:08;14.90;99.90
54898;DHT22;40800;52.704;6.398;2023-08-08T05:25:33;15.10;99.90
54898;DHT22;40800;52.704;6.398;2023-08-08T05:27:59;15.00;99.90
54898;DHT22;40800;52.704;6.398;2023-08-08T05:30:25;15.00;99.90
54898;DHT22;40800;52.704;6.398;2023-08-08T05:32:51;15.20;99.90
54898;DHT22;40800;52.704;6.398;2023-08-08T05:35:16;15.20;99.90
54898;DHT22;40800;52.704;6.398;2023-08-08T05:37:42;15.10;99.90
54898;DHT22;40800;52.704;6.398;2023-08-08T05:40:08;15.30;99.90
54898;DHT22;40800;52.704;6.398;2023-08-08T05:42:35;15.20;99.90
54898;DHT22;40800;52.704;6.398;2023-08-08T05:45:01;15.50;99.90
54898;DHT22;40800;52.704;6.398;2023-08-08T05:47:27;15.40;99.90
54898;DHT22;40800;52.704;6.398;2023-08-08T05:49:52;15.30;99.90
54898;DHT22;40800;52.704;6.398;2023-08-08T05:52:18;15.20;99.90
54898;DHT22;40800;52.704;6.398;2023-08-08T05:54:44;15.10;99.90
54898;DHT22;40800;52.704;6.398;2023-08-08T05:57:09;15.20;99.90
54898;DHT22;40800;52.704;6.398;2023-08-08T05:59:35;15.10;99.90
54898;DHT22;40800;52.704;6.398;2023-08-08T06:02:00;15.30;99.90
54898;DHT22;40800;52.704;6.398;2023-08-08T06:04:26;15.30;99.90
54898;DHT22;40800;52.704;6.398;2023-08-08T06:06:52;15.50;99.90
54898;DHT22;40800;52.704;6.398;2023-08-08T06:09:17;15.60;99.90
54898;DHT22;40800;52.704;6.398;2023-08-08T06:11:43;15.50;99.90
54898;DHT22;40800;52.704;6.398;2023-08-08T06:14:09;15.80;99.90
54898;DHT22;40800;52.704;6.398;2023-08-08T06:16:34;15.90;99.90
54898;DHT22;40800;52.704;6.398;2023-08-08T06:19:00;16.10;99.90
54898;DHT22;40800;52.704;6.398;2023-08-08T06:21:26;16.10;99.90
54898;DHT22;40800;52.704;6.398;2023-08-08T06:23:52;16.30;99.90
54898;DHT22;40800;52.704;6.398;2023-08-08T06:26:21;16.40;99.90
54898;DHT22;40800;52.704;6.398;2023-08-08T06:28:47;16.50;99.90
54898;DHT22;40800;52.704;6.398;2023-08-08T06:31:13;16.50;99.90
54898;DHT22;40800;52.704;6.398;2023-08-08T06:33:39;16.50;99.90
54898;DHT22;40800;52.704;6.398;2023-08-08T06:36:05;16.60;99.90
54898;DHT22;40800;52.704;6.398;2023-08-08T06:38:31;16.70;99.90
54898;DHT22;40800;52.704;6.398;2023-08-08T06:41:00;16.70;99.90
54898;DHT22;40800;52.704;6.398;2023-08-08T06:43:26;16.90;99.90
54898;DHT22;40800;52.704;6.398;2023-08-08T06:45:52;16.90;99.90
54898;DHT22;40800;52.704;6.398;2023-08-08T06:48:17;16.90;99.90
54898;DHT22;40800;52.704;6.398;2023-08-08T06:50:43;16.90;99.90
54898;DHT22;40800;52.704;6.398;2023-08-08T06:53:08;16.90;99.90
54898;DHT22;40800;52.704;6.398;2023-08-08T06:55:34;17.10;99.90
54898;DHT22;40800;52.704;6.398;2023-08-08T06:58:00;17.10;99.90
54898;DHT22;40800;52.704;6.398;2023-08-08T07:00:25;17.00;99.90
54898;DHT22;40800;52.704;6.398;2023-08-08T07:02:52;17.10;99.90
54898;DHT22;40800;52.704;6.398;2023-08-08T07:05:18;17.20;99.90
54898;DHT22;40800;52.704;6.398;2023-08-08T07:07:44;17.20;99.90
54898;DHT22;40800;52.704;6.398;2023-08-08T07:10:10;17.30;99.90
54898;DHT22;40800;52.704;6.398;2023-08-08T07:12:37;17.30;99.90
54898;DHT22;40800;52.704;6.398;2023-08-08T07:15:05;17.40;99.90
54898;DHT22;40800;52.704;6.398;2023-08-08T07:17:31;17.30;99.90
54898;DHT22;40800;52.704;6.398;2023-08-08T07:19:56;17.40;99.90
54898;DHT22;40800;52.704;6.398;2023-08-08T07:22:22;17.40;99.90
54898;DHT22;40800;52.704;6.398;2023-08-08T07:24:48;17.50;99.90
54898;DHT22;40800;52.704;6.398;2023-08-08T07:27:13;17.60;99.90
54898;DHT22;40800;52.704;6.398;2023-08-08T07:29:39;17.60;99.90
54898;DHT22;40800;52.704;6.398;2023-08-08T07:32:05;17.70;99.90
54898;DHT22;40800;52.704;6.398;2023-08-08T07:34:31;17.70;99.90
54898;DHT22;40800;52.704;6.398;2023-08-08T07:36:58;17.70;99.90
54898;DHT22;40800;52.704;6.398;2023-08-08T07:39:23;17.80;99.90
54898;DHT22;40800;52.704;6.398;2023-08-08T07:41:49;17.80;99.90
54898;DHT22;40800;52.704;6.398;2023-08-08T07:44:15;18.00;99.90
54898;DHT22;40800;52.704;6.398;2023-08-08T07:46:41;18.10;99.90
54898;DHT22;40800;52.704;6.398;2023-08-08T07:49:06;18.30;99.90
54898;DHT22;40800;52.704;6.398;2023-08-08T07:51:32;18.40;99.90
54898;DHT22;40800;52.704;6.398;2023-08-08T07:53:58;18.30;99.90
54898;DHT22;40800;52.704;6.398;2023-08-08T07:56:24;18.20;99.90
54898;DHT22;40800;52.704;6.398;2023-08-08T07:58:50;18.20;99.90
54898;DHT22;40800;52.704;6.398;2023-08-08T08:01:15;18.20;99.90
54898;DHT22;40800;52.704;6.398;2023-08-08T08:03:42;18.10;99.90
54898;DHT22;40800;52.704;6.398;2023-08-08T08:06:08;18.20;99.90
54898;DHT22;40800;52.704;6.398;2023-08-08T08:08:33;18.20;99.90
54898;DHT22;40800;52.704;6.398;2023-08-08T08:10:59;18.20;99.90
54898;DHT22;40800;52.704;6.398;2023-08-08T08:13:25;18.10;99.90
54898;DHT22;40800;52.704;6.398;2023-08-08T08:15:50;18.10;99.90
54898;DHT22;40800;52.704;6.398;2023-08-08T08:18:16;18.10;99.90
54898;DHT22;40800;52.704;6.398;2023-08-08T08:20:43;18.10;99.90
54898;DHT22;40800;52.704;6.398;2023-08-08T08:23:09;18.20;99.90
54898;DHT22;40800;52.704;6.398;2023-08-08T08:25:35;18.20;99.90
54898;DHT22;40800;52.704;6.398;2023-08-08T08:28:00;18.30;99.90
54898;DHT22;40800;52.704;6.398;2023-08-08T08:30:34;18.40;99.90
54898;DHT22;40800;52.704;6.398;2023-08-08T08:32:59;18.30;99.90
54898;DHT22;40800;52.704;6.398;2023-08-08T08:35:26;18.40;99.90
54898;DHT22;40800;52.704;6.398;2023-08-08T08:37:51;18.40;99.90
54898;DHT22;40800;52.704;6.398;2023-08-08T08:40:17;18.40;99.90
54898;DHT22;40800;52.704;6.398;2023-08-08T08:42:43;18.50;99.90
54898;DHT22;40800;52.704;6.398;2023-08-08T08:45:11;18.50;99.90
54898;DHT22;40800;52.704;6.398;2023-08-08T08:47:40;18.60;99.90
54898;DHT22;40800;52.704;6.398;2023-08-08T08:50:09;18.50;99.90
54898;DHT22;40800;52.704;6.398;2023-08-08T08:52:35;18.50;99.90
54898;DHT22;40800;52.704;6.398;2023-08-08T08:55:01;18.50;99.90
54898;DHT22;40800;52.704;6.398;2023-08-08T08:57:28;18.50;99.90
54898;DHT22;40800;52.704;6.398;2023-08-08T08:59:54;18.40;99.90
54898;DHT22;40800;52.704;6.398;2023-08-08T09:02:20;18.40;99.90
54898;DHT22;40800;52.704;6.398;2023-08-08T09:04:47;18.50;99.90
54898;DHT22;40800;52.704;6.398;2023-08-08T09:07:14;18.50;99.90
54898;DHT22;40800;52.704;6.398;2023-08-08T09:09:44;18.50;99.90
54898;DHT22;40800;52.704;6.398;2023-08-08T09:12:10;18.50;99.90
54898;DHT22;40800;52.704;6.398;2023-08-08T09:14:40;18.50;99.90
54898;DHT22;40800;52.704;6.398;2023-08-08T09:17:11;18.60;99.90
54898;DHT22;40800;52.704;6.398;2023-08-08T09:19:37;18.60;99.90
54898;DHT22;40800;52.704;6.398;2023-08-08T09:22:03;18.50;99.90
54898;DHT22;40800;52.704;6.398;2023-08-08T09:24:29;18.50;99.90
54898;DHT22;40800;52.704;6.398;2023-08-08T09:26:54;18.30;99.90
54898;DHT22;40800;52.704;6.398;2023-08-08T09:29:20;18.20;99.90
54898;DHT22;40800;52.704;6.398;2023-08-08T09:31:46;18.10;99.90
54898;DHT22;40800;52.704;6.398;2023-08-08T09:34:13;18.00;99.90
54898;DHT22;40800;52.704;6.398;2023-08-08T09:36:38;18.20;99.90
54898;DHT22;40800;52.704;6.398;2023-08-08T09:39:04;18.40;99.90
54898;DHT22;40800;52.704;6.398;2023-08-08T09:41:30;18.70;99.90
54898;DHT22;40800;52.704;6.398;2023-08-08T09:43:59;19.10;99.90
54898;DHT22;40800;52.704;6.398;2023-08-08T09:46:25;19.60;99.90
54898;DHT22;40800;52.704;6.398;2023-08-08T09:48:51;19.60;99.90
54898;DHT22;40800;52.704;6.398;2023-08-08T09:51:17;19.30;99.90
54898;DHT22;40800;52.704;6.398;2023-08-08T09:53:43;18.70;99.90
54898;DHT22;40800;52.704;6.398;2023-08-08T09:56:10;18.40;99.90
54898;DHT22;40800;52.704;6.398;2023-08-08T09:58:36;18.10;99.90
54898;DHT22;40800;52.704;6.398;2023-08-08T10:01:02;18.10;99.90
54898;DHT22;40800;52.704;6.398;2023-08-08T10:03:31;18.00;99.90
54898;DHT22;40800;52.704;6.398;2023-08-08T10:05:57;17.90;99.90
54898;DHT22;40800;52.704;6.398;2023-08-08T10:08:23;18.00;99.90
54898;DHT22;40800;52.704;6.398;2023-08-08T10:10:50;18.20;99.90
54898;DHT22;40800;52.704;6.398;2023-08-08T10:13:24;18.40;99.90
54898;DHT22;40800;52.704;6.398;2023-08-08T10:15:51;18.90;99.90
54898;DHT22;40800;52.704;6.398;2023-08-08T10:18:17;19.10;99.90
54898;DHT22;40800;52.704;6.398;2023-08-08T10:20:46;18.90;99.90
54898;DHT22;40800;52.704;6.398;2023-08-08T10:23:18;18.70;99.90
54898;DHT22;40800;52.704;6.398;2023-08-08T10:25:51;18.70;99.90
54898;DHT22;40800;52.704;6.398;2023-08-08T10:28:19;19.20;99.90
54898;DHT22;40800;52.704;6.398;2023-08-08T10:33:24;18.90;99.90
54898;DHT22;40800;52.704;6.398;2023-08-08T10:38:23;18.10;99.90
54898;DHT22;40800;52.704;6.398;2023-08-08T10:40:53;17.90;99.90
54898;DHT22;40800;52.704;6.398;2023-08-08T10:43:26;17.70;99.90
54898;DHT22;40800;52.704;6.398;2023-08-08T10:45:51;17.80;99.90
54898;DHT22;40800;52.704;6.398;2023-08-08T10:48:17;17.90;99.90
54898;DHT22;40800;52.704;6.398;2023-08-08T10:50:46;18.20;99.90
54898;DHT22;40800;52.704;6.398;2023-08-08T10:53:12;18.50;99.90
54898;DHT22;40800;52.704;6.398;2023-08-08T10:55:38;18.60;99.90
54898;DHT22;40800;52.704;6.398;2023-08-08T10:58:09;18.80;99.90
54898;DHT22;40800;52.704;6.398;2023-08-08T11:00:37;19.10;99.90
54898;DHT22;40800;52.704;6.398;2023-08-08T11:03:05;19.20;99.90
54898;DHT22;40800;52.704;6.398;2023-08-08T11:05:36;18.90;99.90
54898;DHT22;40800;52.704;6.398;2023-08-08T11:08:03;18.50;99.90
54898;DHT22;40800;52.704;6.398;2023-08-08T11:10:29;18.00;99.90
54898;DHT22;40800;52.704;6.398;2023-08-08T11:12:59;17.80;99.90
54898;DHT22;40800;52.704;6.398;2023-08-08T11:15:25;17.80;99.90
54898;DHT22;40800;52.704;6.398;2023-08-08T11:17:55;18.00;99.90
54898;DHT22;40800;52.704;6.398;2023-08-08T11:20:22;17.90;99.90
54898;DHT22;40800;52.704;6.398;2023-08-08T11:22:54;18.30;99.90
54898;DHT22;40800;52.704;6.398;2023-08-08T11:25:26;18.60;99.90
54898;DHT22;40800;52.704;6.398;2023-08-08T11:27:53;18.90;99.90
54898;DHT22;40800;52.704;6.398;2023-08-08T11:30:20;19.20;99.90
54898;DHT22;40800;52.704;6.398;2023-08-08T11:32:47;19.10;99.90
54898;DHT22;40800;52.704;6.398;2023-08-08T11:35:16;18.80;99.90
54898;DHT22;40800;52.704;6.398;2023-08-08T11:37:44;18.40;99.90
54898;DHT22;40800;52.704;6.398;2023-08-08T11:40:11;17.90;99.90
54898;DHT22;40800;52.704;6.398;2023-08-08T11:42:37;17.30;99.90
54898;DHT22;40800;52.704;6.398;2023-08-08T11:45:04;17.10;99.90
54898;DHT22;40800;52.704;6.398;2023-08-08T11:47:30;17.10;99.90
54898;DHT22;40800;52.704;6.398;2023-08-08T11:50:01;17.00;99.90
54898;DHT22;40800;52.704;6.398;2023-08-08T11:52:28;17.50;99.90
54898;DHT22;40800;52.704;6.398;2023-08-08T11:54:53;17.80;99.90
54898;DHT22;40800;52.704;6.398;2023-08-08T11:57:19;18.00;99.90
54898;DHT22;40800;52.704;6.398;2023-08-08T11:59:45;18.10;99.90
54898;DHT22;40800;52.704;6.398;2023-08-08T12:02:13;18.30;99.90
54898;DHT22;40800;52.704;6.398;2023-08-08T12:04:38;18.50;99.90
54898;DHT22;40800;52.704;6.398;2023-08-08T12:07:04;18.50;99.90
54898;DHT22;40800;52.704;6.398;2023-08-08T12:09:33;18.40;99.90
54898;DHT22;40800;52.704;6.398;2023-08-08T12:12:02;18.50;99.90
54898;DHT22;40800;52.704;6.398;2023-08-08T12:14:29;18.50;99.90
54898;DHT22;40800;52.704;6.398;2023-08-08T12:16:55;18.40;99.90
54898;DHT22;40800;52.704;6.398;2023-08-08T12:19:25;18.70;99.90
54898;DHT22;40800;52.704;6.398;2023-08-08T12:21:51;19.10;99.90
54898;DHT22;40800;52.704;6.398;2023-08-08T12:24:20;19.40;99.90
54898;DHT22;40800;52.704;6.398;2023-08-08T12:26:46;19.70;99.90
54898;DHT22;40800;52.704;6.398;2023-08-08T12:29:12;19.90;99.90
54898;DHT22;40800;52.704;6.398;2023-08-08T12:31:38;19.90;99.90
54898;DHT22;40800;52.704;6.398;2023-08-08T12:34:04;19.70;99.90
54898;DHT22;40800;52.704;6.398;2023-08-08T12:36:30;19.20;99.90
54898;DHT22;40800;52.704;6.398;2023-08-08T12:38:56;18.80;99.90
54898;DHT22;40800;52.704;6.398;2023-08-08T12:41:23;18.50;99.90
54898;DHT22;40800;52.704;6.398;2023-08-08T12:43:50;18.10;99.90
54898;DHT22;40800;52.704;6.398;2023-08-08T12:46:16;18.00;99.90
54898;DHT22;40800;52.704;6.398;2023-08-08T12:48:42;18.10;99.90
54898;DHT22;40800;52.704;6.398;2023-08-08T12:51:09;18.60;99.90
54898;DHT22;40800;52.704;6.398;2023-08-08T12:53:35;18.90;99.90
54898;DHT22;40800;52.704;6.398;2023-08-08T12:56:01;18.80;99.90
54898;DHT22;40800;52.704;6.398;2023-08-08T12:58:27;18.60;99.90
54898;DHT22;40800;52.704;6.398;2023-08-08T13:00:52;18.40;99.90
54898;DHT22;40800;52.704;6.398;2023-08-08T13:03:18;18.10;99.90
54898;DHT22;40800;52.704;6.398;2023-08-08T13:05:44;18.00;99.90
54898;DHT22;40800;52.704;6.398;2023-08-08T13:08:10;18.00;99.90
54898;DHT22;40800;52.704;6.398;2023-08-08T13:10:36;18.20;99.90
54898;DHT22;40800;52.704;6.398;2023-08-08T13:13:01;18.50;99.90
54898;DHT22;40800;52.704;6.398;2023-08-08T13:15:27;18.60;99.90
54898;DHT22;40800;52.704;6.398;2023-08-08T13:17:53;18.60;99.90
54898;DHT22;40800;52.704;6.398;2023-08-08T13:20:19;18.40;99.90
54898;DHT22;40800;52.704;6.398;2023-08-08T13:22:44;18.20;99.90
54898;DHT22;40800;52.704;6.398;2023-08-08T13:25:10;18.10;99.90
54898;DHT22;40800;52.704;6.398;2023-08-08T13:27:36;18.00;99.90
54898;DHT22;40800;52.704;6.398;2023-08-08T13:30:03;17.90;99.90
54898;DHT22;40800;52.704;6.398;2023-08-08T13:32:29;17.80;99.90
54898;DHT22;40800;52.704;6.398;2023-08-08T13:34:54;17.70;99.90
54898;DHT22;40800;52.704;6.398;2023-08-08T13:37:20;17.50;99.90
54898;DHT22;40800;52.704;6.398;2023-08-08T13:39:46;17.40;99.90
54898;DHT22;40800;52.704;6.398;2023-08-08T13:42:11;17.40;99.90
54898;DHT22;40800;52.704;6.398;2023-08-08T13:44:37;17.40;99.90
54898;DHT22;40800;52.704;6.398;2023-08-08T13:47:03;17.30;99.90
54898;DHT22;40800;52.704;6.398;2023-08-08T13:49:28;17.30;99.90
54898;DHT22;40800;52.704;6.398;2023-08-08T13:51:54;17.50;99.90
54898;DHT22;40800;52.704;6.398;2023-08-08T13:54:20;17.60;99.90
54898;DHT22;40800;52.704;6.398;2023-08-08T13:56:46;17.90;99.90
54898;DHT22;40800;52.704;6.398;2023-08-08T13:59:11;18.20;99.90
54898;DHT22;40800;52.704;6.398;2023-08-08T14:01:37;18.30;99.90
54898;DHT22;40800;52.704;6.398;2023-08-08T14:04:03;18.40;99.90
54898;DHT22;40800;52.704;6.398;2023-08-08T14:06:30;18.40;99.90
54898;DHT22;40800;52.704;6.398;2023-08-08T14:08:56;18.50;99.90
54898;DHT22;40800;52.704;6.398;2023-08-08T14:11:22;18.40;99.90
54898;DHT22;40800;52.704;6.398;2023-08-08T14:13:48;18.30;99.90
54898;DHT22;40800;52.704;6.398;2023-08-08T14:16:13;18.10;99.90
54898;DHT22;40800;52.704;6.398;2023-08-08T14:18:39;17.90;99.90
54898;DHT22;40800;52.704;6.398;2023-08-08T14:21:05;17.80;99.90
54898;DHT22;40800;52.704;6.398;2023-08-08T14:23:31;17.80;99.90
54898;DHT22;40800;52.704;6.398;2023-08-08T14:25:56;17.90;99.90
54898;DHT22;40800;52.704;6.398;2023-08-08T14:28:22;18.10;99.90
54898;DHT22;40800;52.704;6.398;2023-08-08T14:30:48;18.10;99.90
54898;DHT22;40800;52.704;6.398;2023-08-08T14:33:15;18.10;99.90
54898;DHT22;40800;52.704;6.398;2023-08-08T14:35:41;18.20;99.90
54898;DHT22;40800;52.704;6.398;2023-08-08T14:38:07;18.10;99.90
54898;DHT22;40800;52.704;6.398;2023-08-08T14:40:32;18.20;99.90
54898;DHT22;40800;52.704;6.398;2023-08-08T14:43:00;18.30;99.90
54898;DHT22;40800;52.704;6.398;2023-08-08T14:45:26;18.30;99.90
54898;DHT22;40800;52.704;6.398;2023-08-08T14:47:52;18.50;99.90
54898;DHT22;40800;52.704;6.398;2023-08-08T14:50:18;19.10;99.90
54898;DHT22;40800;52.704;6.398;2023-08-08T14:52:44;19.20;99.90
54898;DHT22;40800;52.704;6.398;2023-08-08T14:55:10;19.10;99.90
54898;DHT22;40800;52.704;6.398;2023-08-08T14:57:36;19.20;99.90
54898;DHT22;40800;52.704;6.398;2023-08-08T15:00:02;19.40;99.90
54898;DHT22;40800;52.704;6.398;2023-08-08T15:02:28;19.40;99.90
54898;DHT22;40800;52.704;6.398;2023-08-08T15:04:53;19.30;99.90
54898;DHT22;40800;52.704;6.398;2023-08-08T15:07:19;19.10;99.90
54898;DHT22;40800;52.704;6.398;2023-08-08T15:09:45;19.00;99.90
54898;DHT22;40800;52.704;6.398;2023-08-08T15:12:14;19.20;99.90
54898;DHT22;40800;52.704;6.398;2023-08-08T15:14:41;19.00;99.90
54898;DHT22;40800;52.704;6.398;2023-08-08T15:17:07;18.90;99.90
54898;DHT22;40800;52.704;6.398;2023-08-08T15:19:32;18.80;99.90
54898;DHT22;40800;52.704;6.398;2023-08-08T15:21:58;18.80;99.90
54898;DHT22;40800;52.704;6.398;2023-08-08T15:24:24;19.10;99.90
54898;DHT22;40800;52.704;6.398;2023-08-08T15:26:50;19.10;99.90
54898;DHT22;40800;52.704;6.398;2023-08-08T15:29:15;19.20;99.90
54898;DHT22;40800;52.704;6.398;2023-08-08T15:31:41;19.20;99.90